Time;durP1;ratioP1;P1;durP2;ratioP2;P2;SDS_P1;SDS_P2;PMS_P1;PMS_P2;Temp;Humidity;BMP_temperature;BMP_pressure;BME280_temperature;BME280_humidity;BME280_pressure;Samples;Min_cycle;Max_cycle;Signal;HPM_P1;HPM_P2
2022/06/04 00:02:08;;;;;;;7.70;5.03;;;14.70;99.90;;;;;;5011423;28;20022;-75
2022/06/04 00:04:34;;;;;;;5.82;4.85;;;14.70;99.90;;;;;;5012884;28;20018;-75
2022/06/04 00:06:59;;;;;;;5.38;4.53;;;14.70;99.90;;;;;;5012703;28;20037;-75
2022/06/04 00:09:28;;;;;;;6.75;4.53;;;14.70;99.90;;;;;;5012781;28;20037;-75
2022/06/04 00:17:24;;;;;;;4.90;4.40;;;14.60;99.90;;;;;;5014478;28;20037;-75
2022/06/04 00:19:50;;;;;;;8.35;4.90;;;14.50;99.90;;;;;;5015575;28;20026;-75
2022/06/04 00:22:16;;;;;;;5.85;4.88;;;14.50;99.90;;;;;;5016576;28;20028;-75
2022/06/04 00:24:43;;;;;;;10.27;5.20;;;14.50;99.90;;;;;;5016389;28;20037;-75
2022/06/04 00:27:15;;;;;;;6.88;4.38;;;14.50;99.90;;;;;;5016310;28;20109;-75
2022/06/04 00:29:40;;;;;;;5.45;4.28;;;14.50;99.90;;;;;;5007388;28;20487;-75
2022/06/04 00:32:06;;;;;;;7.60;4.22;;;14.40;99.90;;;;;;5011506;28;20057;-75
2022/06/04 00:34:32;;;;;;;8.52;4.50;;;14.40;99.90;;;;;;5015949;28;20435;-75
2022/06/04 00:36:59;;;;;;;5.65;4.22;;;14.40;99.90;;;;;;5024502;28;20025;-75
2022/06/04 00:39:24;;;;;;;7.30;4.53;;;14.30;99.90;;;;;;5015975;28;20459;-75
2022/06/04 00:41:51;;;;;;;10.82;5.35;;;14.30;99.90;;;;;;5016241;28;20017;-75
2022/06/04 00:44:19;;;;;;;7.30;4.57;;;14.30;99.90;;;;;;5014688;28;20028;-75
2022/06/04 00:47:18;;;;;;;7.68;4.97;;;14.30;99.90;;;;;;5015810;28;20033;-75
2022/06/04 00:49:44;;;;;;;6.63;4.53;;;14.30;99.90;;;;;;5002973;28;20029;-75
2022/06/04 00:52:12;;;;;;;5.43;4.70;;;14.30;99.90;;;;;;5015709;28;20030;-75
2022/06/04 00:54:39;;;;;;;8.07;5.07;;;14.20;99.90;;;;;;5015642;28;20110;-75
2022/06/04 00:57:10;;;;;;;6.85;4.57;;;14.20;99.90;;;;;;5015788;28;20033;-75
2022/06/04 00:59:48;;;;;;;6.47;5.03;;;14.20;99.90;;;;;;5014628;28;20025;-75
2022/06/04 01:02:25;;;;;;;8.10;4.53;;;14.20;99.90;;;;;;5015568;28;20097;-75
2022/06/04 01:05:02;;;;;;;6.35;4.47;;;14.10;99.90;;;;;;5016949;28;20022;-75
2022/06/04 01:07:49;;;;;;;6.65;5.00;;;14.10;99.90;;;;;;5015560;28;20080;-75
2022/06/04 01:10:38;;;;;;;7.32;4.50;;;14.10;99.90;;;;;;5001596;28;20025;-75
2022/06/04 01:13:28;;;;;;;6.57;3.90;;;14.10;99.90;;;;;;5015552;28;20108;-75
2022/06/04 01:16:17;;;;;;;4.60;4.10;;;14.00;99.90;;;;;;5001267;28;20022;-75
2022/06/04 01:18:51;;;;;;;6.80;3.50;;;14.00;99.90;;;;;;5008617;28;20045;-75
2022/06/04 01:21:24;;;;;;;12.43;3.67;;;14.00;99.90;;;;;;5015291;28;20360;-75
2022/06/04 01:24:11;;;;;;;4.18;3.70;;;13.90;99.90;;;;;;5014939;28;20021;-75
2022/06/04 01:26:55;;;;;;;3.97;3.38;;;13.90;99.90;;;;;;5030236;28;20018;-75
2022/06/04 01:29:31;;;;;;;7.57;3.85;;;13.90;99.90;;;;;;5015114;28;20053;-75
2022/06/04 01:32:10;;;;;;;4.65;4.18;;;13.80;99.90;;;;;;5015048;28;20639;-75
2022/06/04 01:34:48;;;;;;;6.28;4.05;;;13.80;99.90;;;;;;5015091;28;20367;-75
2022/06/04 01:37:42;;;;;;;6.18;4.80;;;13.80;99.90;;;;;;5014752;28;20176;-75
2022/06/04 01:42:59;;;;;;;4.63;4.10;;;13.70;99.90;;;;;;5015108;28;20447;-75
2022/06/04 01:45:27;;;;;;;8.40;3.90;;;13.80;99.90;;;;;;5014790;28;20443;-75
2022/06/04 01:47:56;;;;;;;4.63;4.07;;;13.70;99.90;;;;;;5013640;28;20068;-75
2022/06/04 01:50:37;;;;;;;6.53;3.80;;;13.70;99.90;;;;;;5014799;28;20470;-75
2022/06/04 01:53:06;;;;;;;4.43;3.88;;;13.70;99.90;;;;;;5015072;28;20092;-75
2022/06/04 01:55:41;;;;;;;5.78;4.15;;;13.60;99.90;;;;;;5014528;28;20026;-75
2022/06/04 01:58:17;;;;;;;4.05;3.65;;;13.60;99.90;;;;;;5014394;28;20483;-75
2022/06/04 02:00:47;;;;;;;6.45;4.03;;;13.60;99.90;;;;;;5014515;28;20467;-75
2022/06/04 02:03:37;;;;;;;4.90;4.40;;;13.60;99.90;;;;;;5014764;28;20028;-75
2022/06/04 02:06:11;;;;;;;7.20;4.13;;;13.60;99.90;;;;;;5014412;28;20022;-75
2022/06/04 02:08:56;;;;;;;5.30;3.67;;;13.60;99.90;;;;;;5014432;28;20109;-75
2022/06/04 02:11:25;;;;;;;5.72;4.10;;;13.60;99.90;;;;;;5014046;28;20030;-75
2022/06/04 02:13:54;;;;;;;7.78;3.83;;;13.60;99.90;;;;;;5014396;28;20475;-75
2022/06/04 02:16:28;;;;;;;7.15;4.07;;;13.50;99.90;;;;;;5013854;28;20022;-75
2022/06/04 02:18:56;;;;;;;6.40;4.67;;;13.50;99.90;;;;;;5012657;28;20042;-75
2022/06/04 02:21:23;;;;;;;8.63;5.10;;;13.50;99.90;;;;;;5000375;28;20260;-75
2022/06/04 02:23:49;;;;;;;5.93;4.95;;;13.50;99.90;;;;;;5014121;28;20029;-75
2022/06/04 02:26:16;;;;;;;6.15;5.00;;;13.50;99.90;;;;;;5014040;28;20475;-75
2022/06/04 02:28:42;;;;;;;6.72;4.68;;;13.50;99.90;;;;;;5013837;28;20022;-75
2022/06/04 02:31:37;;;;;;;9.88;5.50;;;13.50;99.90;;;;;;5013934;28;20033;-75
2022/06/04 02:34:14;;;;;;;5.30;3.40;;;13.50;99.90;;;;;;5009373;28;20022;-75
2022/06/04 02:37:02;;;;;;;6.15;3.45;;;13.50;99.90;;;;;;5028041;28;20430;-75
2022/06/04 02:39:51;;;;;;;5.90;3.67;;;13.40;99.90;;;;;;5012966;28;20375;-75
2022/06/04 02:42:24;;;;;;;3.60;3.10;;;13.40;99.90;;;;;;5013000;28;20018;-75
2022/06/04 02:44:58;;;;;;;4.55;4.13;;;13.40;99.90;;;;;;5013029;28;20025;-75
2022/06/04 02:47:30;;;;;;;4.25;3.33;;;13.40;99.90;;;;;;5013822;28;20032;-75
2022/06/04 02:50:13;;;;;;;5.43;2.97;;;13.30;99.90;;;;;;4999569;28;20018;-75
2022/06/04 02:52:40;;;;;;;5.28;3.47;;;13.30;99.90;;;;;;5012960;28;20045;-75
2022/06/04 02:55:10;;;;;;;4.68;3.97;;;13.30;99.90;;;;;;5013429;28;20749;-75
2022/06/04 02:57:40;;;;;;;7.55;4.53;;;13.30;99.90;;;;;;5012230;28;20025;-75
2022/06/04 03:00:10;;;;;;;27.42;6.10;;;13.40;99.90;;;;;;5012485;28;20677;-75
2022/06/04 03:02:36;;;;;;;8.45;4.60;;;13.40;99.90;;;;;;5013534;28;20072;-75
2022/06/04 03:05:13;;;;;;;17.48;5.25;;;13.40;99.90;;;;;;5013536;28;20026;-75
2022/06/04 03:07:41;;;;;;;15.60;5.35;;;13.30;99.90;;;;;;5013469;28;20077;-75
2022/06/04 03:10:13;;;;;;;8.27;5.53;;;13.40;99.90;;;;;;5013066;28;20020;-75
2022/06/04 03:12:38;;;;;;;9.98;5.18;;;13.40;99.90;;;;;;5013323;28;20101;-75
2022/06/04 03:15:04;;;;;;;10.10;5.65;;;13.40;99.90;;;;;;5013511;28;20025;-75
2022/06/04 03:17:30;;;;;;;15.95;5.38;;;13.30;99.90;;;;;;5012916;28;20053;-76
2022/06/04 03:19:56;;;;;;;9.20;4.90;;;13.40;99.90;;;;;;5006868;28;20062;-75
2022/06/04 03:22:21;;;;;;;9.77;4.57;;;13.40;99.90;;;;;;5013242;28;20027;-75
2022/06/04 03:24:47;;;;;;;9.52;4.15;;;13.40;99.90;;;;;;5011872;28;20053;-75
2022/06/04 03:27:12;;;;;;;5.80;4.35;;;13.40;99.90;;;;;;5013067;28;20050;-75
2022/06/04 03:29:38;;;;;;;8.43;4.40;;;13.30;99.90;;;;;;5024371;28;20042;-75
2022/06/04 03:32:05;;;;;;;7.65;4.78;;;13.30;99.90;;;;;;5012932;28;20360;-75
2022/06/04 03:34:31;;;;;;;9.88;4.75;;;13.30;99.90;;;;;;5012863;28;20378;-75
2022/06/04 03:36:56;;;;;;;12.70;5.28;;;13.30;99.90;;;;;;5028243;28;20030;-76
2022/06/04 03:39:22;;;;;;;12.43;4.88;;;13.30;99.90;;;;;;5012854;28;20102;-75
2022/06/04 03:41:48;;;;;;;6.82;4.38;;;13.30;99.90;;;;;;5013028;28;20022;-75
2022/06/04 03:44:13;;;;;;;10.25;4.40;;;13.30;99.90;;;;;;5013062;28;20375;-75
2022/06/04 03:46:39;;;;;;;8.77;4.72;;;13.30;99.90;;;;;;5027631;28;20021;-75
2022/06/04 03:49:05;;;;;;;8.73;4.72;;;13.20;99.90;;;;;;5012750;28;20467;-75
2022/06/04 03:51:30;;;;;;;8.00;4.38;;;13.20;99.90;;;;;;5012949;28;20025;-75
2022/06/04 03:53:57;;;;;;;8.48;4.30;;;13.20;99.90;;;;;;5013219;28;20033;-75
2022/06/04 03:56:23;;;;;;;6.35;3.95;;;13.20;99.90;;;;;;5012625;28;20479;-75
2022/06/04 03:58:49;;;;;;;5.65;4.03;;;13.20;99.90;;;;;;5012566;28;20018;-75
2022/06/04 04:01:19;;;;;;;7.65;3.88;;;13.20;99.90;;;;;;5013163;28;20129;-75
2022/06/04 04:03:45;;;;;;;5.65;4.30;;;13.20;99.90;;;;;;5012717;28;20022;-75
2022/06/04 04:06:18;;;;;;;5.40;3.85;;;13.10;99.90;;;;;;5013193;28;20053;-75
2022/06/04 04:08:43;;;;;;;11.60;4.32;;;13.20;99.90;;;;;;5013046;28;20033;-75
2022/06/04 04:11:13;;;;;;;6.25;3.80;;;13.20;99.90;;;;;;5012947;28;20109;-75
2022/06/04 04:13:39;;;;;;;7.90;3.72;;;13.20;99.90;;;;;;5013282;28;20411;-75
2022/06/04 04:16:07;;;;;;;4.60;3.83;;;13.20;99.90;;;;;;5012799;28;20113;-75
2022/06/04 04:18:34;;;;;;;5.20;3.38;;;13.20;99.90;;;;;;5008670;28;20076;-75
2022/06/04 04:21:06;;;;;;;4.43;3.53;;;13.20;99.90;;;;;;5001670;28;20022;-75
2022/06/04 04:23:32;;;;;;;4.95;3.63;;;13.20;99.90;;;;;;5012665;28;20062;-75
2022/06/04 04:25:58;;;;;;;9.15;3.85;;;13.20;99.90;;;;;;5012595;28;20471;-75
2022/06/04 04:28:24;;;;;;;9.23;3.80;;;13.20;99.90;;;;;;5007028;28;20037;-75
2022/06/04 04:30:49;;;;;;;7.50;3.75;;;13.30;99.90;;;;;;5004992;28;20030;-75
2022/06/04 04:33:15;;;;;;;4.50;4.00;;;13.30;99.90;;;;;;5012954;28;20037;-75
2022/06/04 04:35:41;;;;;;;7.00;3.60;;;13.30;99.90;;;;;;5013216;28;20402;-77
2022/06/04 04:38:07;;;;;;;4.80;3.47;;;13.30;99.90;;;;;;5013380;28;20022;-77
2022/06/04 04:40:33;;;;;;;4.45;3.70;;;13.40;99.90;;;;;;5013724;28;20371;-76
2022/06/04 04:42:59;;;;;;;5.47;3.58;;;13.50;99.90;;;;;;5028787;28;20033;-77
2022/06/04 04:45:26;;;;;;;4.15;3.50;;;13.50;99.90;;;;;;5013344;28;20071;-77
2022/06/04 04:47:53;;;;;;;8.63;3.95;;;13.60;99.90;;;;;;5013486;28;20022;-77
2022/06/04 04:50:34;;;;;;;4.32;3.30;;;13.60;99.90;;;;;;5012979;28;20109;-77
2022/06/04 04:53:03;;;;;;;7.70;4.03;;;13.70;99.90;;;;;;5013243;28;20041;-77
2022/06/04 04:55:29;;;;;;;8.20;3.80;;;13.80;99.90;;;;;;5013246;28;20169;-77
2022/06/04 04:57:55;;;;;;;7.10;3.72;;;13.90;99.90;;;;;;5013322;28;20085;-77
2022/06/04 05:00:21;;;;;;;5.10;3.90;;;14.00;99.90;;;;;;5017024;28;20040;-76
2022/06/04 05:02:46;;;;;;;7.50;3.83;;;14.00;99.90;;;;;;5031906;28;20022;-76
2022/06/04 05:05:13;;;;;;;5.05;3.53;;;14.20;99.90;;;;;;5016841;28;20028;-77
2022/06/04 05:07:39;;;;;;;3.80;3.45;;;14.20;99.90;;;;;;5017023;28;20022;-76
2022/06/04 05:10:06;;;;;;;4.28;3.85;;;14.30;99.90;;;;;;5016616;28;20374;-85
2022/06/04 05:12:31;;;;;;;4.45;3.92;;;14.40;99.90;;;;;;5016453;28;20037;-76
2022/06/04 05:14:57;;;;;;;6.63;4.00;;;14.50;99.90;;;;;;5015131;28;20029;-75
2022/06/04 05:17:23;;;;;;;8.82;3.85;;;14.60;99.90;;;;;;5015672;28;20021;-76
2022/06/04 05:19:49;;;;;;;5.07;4.30;;;14.80;99.90;;;;;;5015975;28;20030;-76
2022/06/04 05:22:14;;;;;;;4.15;3.72;;;14.80;99.90;;;;;;5013104;28;20101;-73
2022/06/04 05:24:40;;;;;;;4.72;3.95;;;15.00;99.90;;;;;;5015522;28;20029;-70
2022/06/04 05:27:05;;;;;;;7.80;4.00;;;15.10;99.90;;;;;;5016045;28;20430;-69
2022/06/04 05:29:33;;;;;;;9.00;4.63;;;15.20;99.90;;;;;;5006004;28;20031;-68
2022/06/04 05:31:59;;;;;;;19.17;5.40;;;15.40;99.90;;;;;;5012440;28;20030;-70
2022/06/04 05:34:26;;;;;;;10.50;4.97;;;15.50;99.90;;;;;;5012800;28;20156;-77
2022/06/04 05:36:53;;;;;;;8.43;4.47;;;15.70;99.90;;;;;;5012590;28;20083;-70
2022/06/04 05:39:19;;;;;;;6.47;4.20;;;15.90;99.90;;;;;;5012530;28;20094;-70
2022/06/04 05:41:45;;;;;;;6.57;3.83;;;16.00;99.90;;;;;;5012549;28;20478;-70
2022/06/04 05:44:11;;;;;;;4.35;3.40;;;16.20;99.90;;;;;;5012454;28;20057;-70
2022/06/04 05:46:41;;;;;;;5.88;3.30;;;16.30;99.90;;;;;;5012596;28;20030;-70
2022/06/04 05:49:07;;;;;;;6.45;3.20;;;16.50;99.90;;;;;;5011158;28;20026;-70
2022/06/04 05:51:32;;;;;;;6.65;3.75;;;16.60;99.90;;;;;;5012366;28;20449;-70
2022/06/04 05:54:00;;;;;;;4.82;3.00;;;16.80;99.90;;;;;;5011084;28;20029;-71
2022/06/04 05:56:28;;;;;;;6.13;3.10;;;16.90;99.90;;;;;;5011933;28;20026;-70
2022/06/04 05:58:59;;;;;;;4.60;3.00;;;17.00;99.90;;;;;;5011753;28;20109;-70
2022/06/04 06:01:27;;;;;;;5.95;2.95;;;17.20;99.90;;;;;;5011894;28;20033;-71
2022/06/04 06:03:54;;;;;;;6.57;3.45;;;17.30;99.90;;;;;;5011975;28;20115;-70
2022/06/04 06:06:23;;;;;;;4.95;3.03;;;17.40;99.90;;;;;;5009011;28;20489;-70
2022/06/04 06:08:51;;;;;;;4.55;2.70;;;17.60;99.90;;;;;;5011877;28;20034;-70
2022/06/04 06:11:18;;;;;;;4.60;3.30;;;17.80;99.90;;;;;;5009512;28;20042;-70
2022/06/04 06:13:45;;;;;;;7.70;2.80;;;18.10;99.90;;;;;;5011509;28;20033;-70
2022/06/04 06:16:15;;;;;;;5.65;3.03;;;18.20;99.90;;;;;;5011703;28;20026;-70
2022/06/04 06:18:41;;;;;;;7.35;3.10;;;18.40;99.90;;;;;;5006787;28;20049;-70
2022/06/04 06:21:08;;;;;;;4.75;3.08;;;18.40;99.90;;;;;;5009720;28;20010;-70
2022/06/04 06:23:35;;;;;;;5.95;2.97;;;18.50;99.90;;;;;;5011307;28;20030;-71
2022/06/04 06:26:22;;;;;;;4.00;2.97;;;18.40;99.90;;;;;;5026439;28;20032;-70
2022/06/04 06:28:48;;;;;;;4.88;3.08;;;18.50;99.90;;;;;;5009604;28;20332;-70
2022/06/04 06:31:18;;;;;;;4.30;2.65;;;18.60;99.90;;;;;;5011681;28;20026;-70
2022/06/04 06:33:43;;;;;;;4.93;2.60;;;18.60;99.90;;;;;;5011270;28;20381;-70
2022/06/04 06:36:11;;;;;;;4.07;2.70;;;18.60;99.90;;;;;;5011907;28;20025;-70
2022/06/04 06:38:37;;;;;;;4.10;2.60;;;18.70;99.90;;;;;;5011156;28;20026;-70
2022/06/04 06:41:04;;;;;;;7.15;2.65;;;18.60;99.90;;;;;;5011273;28;20022;-71
2022/06/04 06:43:47;;;;;;;4.50;2.45;;;18.70;99.90;;;;;;5010643;28;20028;-70
2022/06/04 06:46:29;;;;;;;6.68;2.50;;;18.70;99.90;;;;;;5010694;28;20026;-71
2022/06/04 06:49:00;;;;;;;5.25;3.03;;;18.60;99.90;;;;;;5008045;28;20041;-70
2022/06/04 06:51:30;;;;;;;6.90;2.67;;;18.60;99.90;;;;;;5000215;28;20027;-71
2022/06/04 06:53:55;;;;;;;5.72;2.60;;;18.70;99.90;;;;;;5006515;28;20030;-69
2022/06/04 06:56:26;;;;;;;4.72;2.42;;;18.70;99.90;;;;;;5011423;28;20075;-69
2022/06/04 06:58:52;;;;;;;5.90;3.78;;;18.80;99.90;;;;;;5008823;28;20017;-69
2022/06/04 07:01:17;;;;;;;7.53;2.88;;;18.90;99.90;;;;;;5009028;28;20022;-69
2022/06/04 07:03:44;;;;;;;6.13;3.33;;;18.90;99.90;;;;;;5011362;28;20454;-69
2022/06/04 07:06:12;;;;;;;4.68;2.70;;;19.00;99.90;;;;;;5008987;28;20029;-70
2022/06/04 07:08:40;;;;;;;5.07;2.78;;;19.00;99.90;;;;;;5008827;28;20570;-69
2022/06/04 07:11:06;;;;;;;4.90;2.60;;;19.00;99.90;;;;;;5010161;28;20029;-69
2022/06/04 07:13:32;;;;;;;6.60;3.22;;;19.10;99.90;;;;;;5010496;28;20093;-69
2022/06/04 07:16:02;;;;;;;5.43;2.80;;;19.10;99.90;;;;;;5025299;28;20156;-70
2022/06/04 07:18:28;;;;;;;5.40;2.40;;;19.10;99.90;;;;;;5004506;28;20073;-70
2022/06/04 07:20:55;;;;;;;3.78;2.40;;;19.20;99.90;;;;;;5007754;28;20015;-70
2022/06/04 07:23:21;;;;;;;4.35;2.50;;;19.40;99.90;;;;;;5010713;28;20022;-70
2022/06/04 07:25:46;;;;;;;3.97;2.90;;;19.40;99.90;;;;;;5007496;28;20021;-70
2022/06/04 07:28:14;;;;;;;8.60;2.30;;;19.50;99.90;;;;;;5009007;28;20033;-75
2022/06/04 07:30:40;;;;;;;2.72;1.70;;;19.70;99.90;;;;;;5011370;28;20445;-71
2022/06/04 07:33:06;;;;;;;4.88;2.22;;;19.90;99.90;;;;;;5010845;28;20093;-71
2022/06/04 07:35:32;;;;;;;7.13;1.88;;;20.00;99.90;;;;;;5010759;28;20029;-71
2022/06/04 07:37:58;;;;;;;4.07;1.98;;;20.00;99.90;;;;;;5010824;28;20184;-71
2022/06/04 07:40:24;;;;;;;4.68;1.90;;;20.00;99.90;;;;;;5010854;28;20092;-71
2022/06/04 07:42:49;;;;;;;4.00;2.05;;;20.00;99.90;;;;;;5011015;28;20041;-70
2022/06/04 07:45:15;;;;;;;6.57;3.00;;;19.80;99.90;;;;;;5010622;28;20026;-71
2022/06/04 07:47:41;;;;;;;6.15;2.30;;;19.70;99.90;;;;;;5010051;28;20041;-71
2022/06/04 07:50:08;;;;;;;4.32;1.80;;;19.50;99.90;;;;;;5010447;28;20076;-71
2022/06/04 07:52:37;;;;;;;4.18;1.90;;;19.40;99.90;;;;;;5010548;28;20386;-70
2022/06/04 07:55:06;;;;;;;5.22;2.33;;;19.30;99.90;;;;;;5011390;28;20030;-70
2022/06/04 07:57:32;;;;;;;5.10;2.13;;;19.20;99.90;;;;;;5010588;28;20030;-70
2022/06/04 07:59:58;;;;;;;3.75;2.33;;;19.20;99.90;;;;;;5010224;28;20030;-70
2022/06/04 08:02:25;;;;;;;5.85;2.28;;;19.20;99.90;;;;;;5010620;28;20026;-70
2022/06/04 08:04:53;;;;;;;3.13;2.10;;;19.20;99.90;;;;;;5008312;28;20727;-73
2022/06/04 08:07:20;;;;;;;5.53;2.20;;;19.30;99.90;;;;;;5008643;28;20026;-70
2022/06/04 08:09:48;;;;;;;4.70;1.88;;;19.40;99.90;;;;;;5008178;28;20765;-70
2022/06/04 08:12:17;;;;;;;3.92;1.80;;;19.50;99.90;;;;;;5007445;28;20041;-70
2022/06/04 08:14:43;;;;;;;4.35;2.17;;;19.60;99.90;;;;;;5006534;28;20030;-70
2022/06/04 08:17:10;;;;;;;6.22;2.10;;;19.80;99.90;;;;;;4993557;28;20058;-70
2022/06/04 08:19:37;;;;;;;8.93;2.40;;;19.90;99.90;;;;;;4993469;28;20053;-70
2022/06/04 08:22:03;;;;;;;4.50;1.98;;;20.00;99.90;;;;;;4987783;28;20027;-70
2022/06/04 08:24:29;;;;;;;4.63;1.92;;;20.00;99.90;;;;;;5006595;28;20049;-70
2022/06/04 08:26:58;;;;;;;6.82;2.22;;;20.00;99.90;;;;;;5006787;28;20378;-71
2022/06/04 08:29:24;;;;;;;4.20;1.63;;;20.00;99.90;;;;;;5006473;28;20030;-70
2022/06/04 08:31:50;;;;;;;5.93;1.70;;;20.10;99.90;;;;;;5006383;28;20036;-70
2022/06/04 08:34:16;;;;;;;7.97;1.88;;;20.20;99.90;;;;;;5010025;28;20030;-84
2022/06/04 08:36:42;;;;;;;5.70;1.88;;;20.30;99.90;;;;;;5010943;28;20096;-71
2022/06/04 08:39:08;;;;;;;6.63;2.38;;;20.40;99.90;;;;;;5009347;28;20124;-71
2022/06/04 08:41:58;;;;;;;4.70;2.00;;;20.50;99.90;;;;;;5009986;28;20032;-71
2022/06/04 08:44:34;;;;;;;5.40;2.00;;;20.60;99.90;;;;;;5008861;28;20561;-71
2022/06/04 08:47:02;;;;;;;3.10;2.00;;;20.70;99.90;;;;;;5009361;28;20033;-71
2022/06/04 08:49:39;;;;;;;3.20;1.77;;;20.90;99.90;;;;;;5010341;28;20038;-71
2022/06/04 08:52:12;;;;;;;3.33;1.88;;;21.10;99.90;;;;;;5009160;28;20030;-71
2022/06/04 08:57:32;;;;;;;3.40;2.15;;;21.20;99.90;;;;;;5010029;28;20088;-69
2022/06/04 09:00:21;;;;;;;3.38;1.92;;;21.30;99.90;;;;;;5008883;28;20767;-70
2022/06/04 09:03:02;;;;;;;4.97;2.13;;;21.50;99.90;;;;;;5004528;28;20038;-69
2022/06/04 09:05:52;;;;;;;4.32;1.88;;;21.70;99.90;;;;;;5008314;28;20030;-69
2022/06/04 09:08:48;;;;;;;4.00;1.80;;;21.80;99.90;;;;;;5011445;28;20041;-69
2022/06/04 09:11:32;;;;;;;2.58;1.75;;;22.00;99.90;;;;;;5012027;28;20030;-69
2022/06/04 09:14:22;;;;;;;4.30;2.05;;;22.30;99.90;;;;;;5007758;28;20117;-69
2022/06/04 09:16:58;;;;;;;4.07;1.60;;;22.40;99.90;;;;;;5012653;28;20744;-70
2022/06/04 09:19:28;;;;;;;3.17;1.63;;;22.60;99.90;;;;;;5002617;28;20049;-68
2022/06/04 09:21:56;;;;;;;2.53;2.03;;;22.70;99.90;;;;;;5012082;28;20568;-69
2022/06/04 09:24:23;;;;;;;2.65;1.40;;;22.70;99.90;;;;;;4998188;28;20144;-68
2022/06/04 09:27:05;;;;;;;4.32;2.00;;;22.70;99.90;;;;;;5011503;28;20033;-69
2022/06/04 09:29:34;;;;;;;4.38;1.58;;;22.80;99.90;;;;;;5011618;28;20537;-69
2022/06/04 09:32:44;;;;;;;4.72;1.85;;;22.90;99.90;;;;;;5010983;28;20391;-69
2022/06/04 09:35:13;;;;;;;4.35;1.63;;;22.80;99.90;;;;;;5010539;28;20382;-70
2022/06/04 09:37:47;;;;;;;4.68;1.60;;;22.90;99.90;;;;;;5009351;28;20048;-70
2022/06/04 09:40:21;;;;;;;4.93;1.95;;;23.00;99.90;;;;;;4997354;28;20018;-71
2022/06/04 09:42:48;;;;;;;5.00;2.03;;;23.30;99.90;;;;;;5025222;28;20025;-72
2022/06/04 09:45:27;;;;;;;3.22;1.80;;;23.70;99.90;;;;;;5010107;28;20394;-71
2022/06/04 09:47:58;;;;;;;5.60;1.80;;;23.90;99.90;;;;;;5010071;28;20018;-71
2022/06/04 09:50:31;;;;;;;3.05;1.55;;;24.10;99.90;;;;;;5010186;28;20540;-72
2022/06/04 09:53:02;;;;;;;5.10;2.03;;;24.30;99.90;;;;;;5010274;28;20026;-71
2022/06/04 09:55:28;;;;;;;7.63;2.15;;;24.50;99.90;;;;;;5010107;28;20489;-71
2022/06/04 09:57:57;;;;;;;18.98;3.15;;;24.70;99.90;;;;;;5010298;28;20061;-71
2022/06/04 10:00:30;;;;;;;6.88;2.10;;;24.70;99.90;;;;;;5009796;28;20025;-71
2022/06/04 10:03:16;;;;;;;5.53;2.22;;;24.80;99.90;;;;;;5010293;28;20117;-72
2022/06/04 10:06:00;;;;;;;4.10;2.00;;;24.80;99.90;;;;;;5009898;28;20034;-72
2022/06/04 10:08:27;;;;;;;5.78;2.08;;;25.10;99.90;;;;;;5009913;28;20022;-73
2022/06/04 10:11:07;;;;;;;4.38;1.85;;;25.20;99.90;;;;;;5011158;28;20474;-72
2022/06/04 10:13:43;;;;;;;4.53;1.90;;;25.40;99.90;;;;;;5010824;28;20476;-72
2022/06/04 10:16:22;;;;;;;3.38;1.90;;;25.20;99.90;;;;;;4997202;28;20030;-72
2022/06/04 10:18:56;;;;;;;5.00;2.15;;;25.60;99.90;;;;;;5002873;28;20183;-72
2022/06/04 10:21:28;;;;;;;4.82;2.08;;;25.60;99.90;;;;;;5000287;28;20033;-73
2022/06/04 10:23:57;;;;;;;4.43;2.17;;;25.90;99.90;;;;;;5009677;28;20025;-72
2022/06/04 10:26:29;;;;;;;4.38;2.00;;;25.90;99.90;;;;;;5025209;28;20045;-71
2022/06/04 10:29:40;;;;;;;4.75;2.08;;;26.00;99.90;;;;;;5009631;28;20029;-71
2022/06/04 10:32:15;;;;;;;9.48;2.30;;;26.10;99.90;;;;;;4998490;28;20661;-71
2022/06/04 10:34:56;;;;;;;5.45;2.03;;;26.20;99.90;;;;;;5010394;28;20037;-72
2022/06/04 10:37:38;;;;;;;6.28;2.30;;;26.40;99.90;;;;;;5010484;28;20061;-72
2022/06/04 10:40:28;;;;;;;3.72;1.90;;;26.50;99.90;;;;;;5008572;28;20026;-71
2022/06/04 10:43:35;;;;;;;4.65;2.13;;;26.70;99.90;;;;;;5009431;28;20030;-72
2022/06/04 10:46:34;;;;;;;4.05;2.03;;;27.00;99.90;;;;;;4947856;29;20035;-70
2022/06/04 10:49:18;;;;;;;4.80;1.88;;;26.90;99.90;;;;;;4997995;28;20427;-69
2022/06/04 10:52:20;;;;;;;4.87;1.90;;;26.90;99.90;;;;;;5002131;28;20516;-69
2022/06/04 10:55:25;;;;;;;3.33;2.10;;;27.20;99.90;;;;;;5004461;28;20279;-70
2022/06/04 10:57:59;;;;;;;6.32;2.20;;;27.30;99.90;;;;;;4998267;28;20099;-70
2022/06/04 11:00:37;;;;;;;5.38;2.40;;;27.50;99.90;;;;;;4998703;28;20152;-70
2022/06/04 11:03:34;;;;;;;7.43;2.20;;;27.40;99.90;;;;;;5006360;28;20417;-71
2022/06/04 11:06:26;;;;;;;6.72;1.95;;;27.70;99.90;;;;;;5008918;28;20033;-68
2022/06/04 11:09:05;;;;;;;8.75;2.25;;;27.70;99.90;;;;;;5000364;28;20040;-68
2022/06/04 11:11:37;;;;;;;5.50;2.10;;;27.90;99.90;;;;;;5008431;28;20018;-69
2022/06/04 11:14:35;;;;;;;3.97;1.85;;;28.10;99.90;;;;;;4995858;28;20414;-69
2022/06/04 11:17:15;;;;;;;4.00;1.73;;;28.50;99.90;;;;;;5008095;28;20620;-69
2022/06/04 11:20:04;;;;;;;9.45;2.10;;;28.60;99.90;;;;;;5001074;28;20046;-75
2022/06/04 11:22:39;;;;;;;7.72;2.40;;;28.60;99.90;;;;;;5007904;28;20022;-77
2022/06/04 11:25:32;;;;;;;6.00;2.05;;;28.60;99.90;;;;;;5007997;28;20436;-81
2022/06/04 11:28:07;;;;;;;5.30;1.88;;;28.80;99.90;;;;;;5010464;28;20112;-82
2022/06/04 11:30:51;;;;;;;11.63;2.47;;;28.70;99.90;;;;;;5009646;28;20030;-82
2022/06/04 11:33:21;;;;;;;5.32;2.58;;;29.00;99.90;;;;;;5009529;28;20021;-83
2022/06/04 11:36:25;;;;;;;5.25;2.22;;;29.00;99.90;;;;;;5009623;28;20036;-83
2022/06/04 11:39:45;;;;;;;6.93;2.00;;;29.10;99.90;;;;;;5008075;28;20028;-82
2022/06/04 11:42:22;;;;;;;5.57;1.98;;;29.20;99.90;;;;;;4933052;29;20059;-82
2022/06/04 11:45:00;;;;;;;3.92;2.00;;;29.00;99.90;;;;;;5000158;28;20756;-83
2022/06/04 11:47:55;;;;;;;5.20;2.13;;;29.00;99.90;;;;;;5009856;28;20033;-82
2022/06/04 11:50:50;;;;;;;5.15;2.17;;;29.00;99.90;;;;;;5009724;28;20026;-83
2022/06/04 11:53:45;;;;;;;5.63;1.67;;;29.10;99.90;;;;;;5008389;28;20784;-83
2022/06/04 11:56:16;;;;;;;;;;;29.50;99.90;;;;;;5000054;28;20026;-83
2022/06/04 11:58:50;;;;;;;3.65;1.70;;;29.40;99.90;;;;;;5008891;28;20358;-83
2022/06/04 12:01:41;;;;;;;5.22;1.85;;;29.20;99.90;;;;;;5002638;28;20479;-83
2022/06/04 12:04:20;;;;;;;4.63;1.90;;;29.40;99.90;;;;;;5007882;28;20033;-83
2022/06/04 12:07:24;;;;;;;3.33;2.13;;;29.80;99.90;;;;;;5009000;28;20029;-83
2022/06/04 12:10:10;;;;;;;8.23;2.70;;;29.70;99.90;;;;;;5010678;28;20045;-83
2022/06/04 12:13:06;;;;;;;6.25;1.83;;;30.10;99.90;;;;;;5012286;28;20273;-83
2022/06/04 12:15:57;;;;;;;5.28;2.17;;;30.30;99.90;;;;;;5013306;28;20038;-83
2022/06/04 12:18:31;;;;;;;5.57;1.77;;;30.30;99.90;;;;;;5014682;28;20053;-83
2022/06/04 12:26:38;;;;;;;4.72;1.85;;;30.80;99.90;;;;;;5012735;28;20025;-83
2022/06/04 12:29:31;;;;;;;7.32;1.88;;;31.20;99.90;;;;;;5011364;28;20049;-83
2022/06/04 12:32:18;;;;;;;7.05;2.08;;;31.20;99.90;;;;;;5013055;28;20057;-83
2022/06/04 12:34:44;;;;;;;7.03;2.15;;;31.10;99.90;;;;;;5012731;28;20138;-83
2022/06/04 12:37:27;;;;;;;3.50;1.65;;;30.90;99.90;;;;;;5027488;28;20072;-83
2022/06/04 12:39:53;;;;;;;7.13;2.08;;;31.00;99.90;;;;;;5013536;28;20030;-83
2022/06/04 12:42:19;;;;;;;5.40;1.98;;;31.20;99.90;;;;;;5012502;28;20071;-83
2022/06/04 12:44:59;;;;;;;6.60;2.28;;;31.20;99.90;;;;;;5012404;28;20328;-83
2022/06/04 12:47:27;;;;;;;5.15;1.88;;;31.50;99.90;;;;;;5013469;28;20501;-83
2022/06/04 12:50:18;;;;;;;7.07;1.90;;;31.60;99.90;;;;;;5013825;28;20034;-83
2022/06/04 12:52:51;;;;;;;6.63;2.40;;;31.60;99.90;;;;;;5004401;28;20034;-83
2022/06/04 12:55:16;;;;;;;3.40;2.10;;;31.70;99.90;;;;;;5014055;28;20530;-83
2022/06/04 12:58:02;;;;;;;5.20;1.88;;;31.60;99.90;;;;;;5013662;28;20034;-83
2022/06/04 13:00:35;;;;;;;6.03;2.22;;;31.30;99.90;;;;;;5012816;28;20022;-83
2022/06/04 13:03:06;;;;;;;6.68;2.03;;;31.40;99.90;;;;;;5013760;28;20026;-83
2022/06/04 13:05:59;;;;;;;8.95;2.50;;;31.50;99.90;;;;;;5011454;28;20451;-82
2022/06/04 13:08:25;;;;;;;5.60;2.47;;;30.80;99.90;;;;;;5004045;28;20141;-83
2022/06/04 13:10:53;;;;;;;3.75;2.20;;;30.40;99.90;;;;;;5014586;28;20096;-83
2022/06/04 13:13:45;;;;;;;6.25;2.20;;;30.10;99.90;;;;;;5014527;28;20029;-83
2022/06/04 13:16:27;;;;;;;4.65;2.30;;;30.20;99.90;;;;;;4999937;28;20065;-82
2022/06/04 13:19:08;;;;;;;5.63;2.40;;;30.40;99.90;;;;;;5012832;28;20372;-82
2022/06/04 13:21:42;;;;;;;6.07;2.25;;;30.30;99.90;;;;;;5009537;28;20471;-82
2022/06/04 13:24:24;;;;;;;5.55;2.10;;;30.30;99.90;;;;;;5029405;28;20127;-83
2022/06/04 13:26:57;;;;;;;3.20;2.03;;;30.40;99.90;;;;;;5001573;28;20590;-83
2022/06/04 13:29:22;;;;;;;8.88;2.10;;;30.30;99.90;;;;;;5014622;28;20109;-83
2022/06/04 13:31:56;;;;;;;4.18;2.00;;;30.30;99.90;;;;;;5014334;28;20958;-83
2022/06/04 13:34:27;;;;;;;7.10;1.98;;;30.10;99.90;;;;;;5014437;28;20058;-83